createdAt,value
2019-05-11T00:00:38.029Z,3.27
2019-05-11T00:03:03.825Z,3.25
2019-05-11T00:05:29.613Z,3.22
2019-05-11T00:07:55.408Z,3.18
2019-05-11T00:10:23.529Z,3.10
2019-05-11T00:12:49.317Z,3.08
2019-05-11T00:15:15.125Z,3.05
2019-05-11T00:17:40.902Z,3.02
2019-05-11T00:20:06.800Z,3.06
2019-05-11T00:22:32.584Z,3.02
2019-05-11T00:24:58.360Z,2.97
2019-05-11T00:27:27.639Z,2.95
2019-05-11T00:29:53.472Z,2.80
2019-05-11T00:32:22.731Z,2.81
2019-05-11T00:34:47.237Z,2.75
2019-05-11T00:37:13.031Z,2.94
2019-05-11T00:39:38.816Z,2.89
2019-05-11T00:42:04.632Z,2.88
2019-05-11T00:44:30.396Z,2.83
2019-05-11T00:46:56.190Z,2.74
2019-05-11T00:49:21.975Z,2.61
2019-05-11T00:51:47.854Z,2.49
2019-05-11T00:54:13.665Z,2.53
2019-05-11T00:56:39.462Z,2.53
2019-05-11T00:59:05.242Z,2.45
2019-05-11T01:01:31.163Z,2.58
2019-05-11T01:03:57.268Z,2.65
2019-05-11T01:06:23.672Z,2.72
2019-05-11T01:08:49.572Z,2.66
2019-05-11T01:11:15.518Z,2.50
2019-05-11T01:13:41.545Z,2.42
2019-05-11T01:16:07.488Z,2.34
2019-05-11T01:18:33.625Z,2.29
2019-05-11T01:20:59.489Z,2.36
2019-05-11T01:23:25.542Z,2.44
2019-05-11T01:25:51.565Z,2.38
2019-05-11T01:28:17.417Z,2.37
2019-05-11T01:30:43.213Z,2.37
2019-05-11T01:33:09.132Z,2.37
2019-05-11T01:35:34.951Z,2.25
2019-05-11T01:38:00.770Z,2.26
2019-05-11T01:40:26.559Z,2.21
2019-05-11T01:42:52.342Z,2.18
2019-05-11T01:45:18.171Z,2.11
2019-05-11T01:47:43.958Z,2.13
2019-05-11T01:50:09.874Z,2.10
2019-05-11T01:52:35.659Z,2.12
2019-05-11T01:55:01.562Z,2.04
2019-05-11T01:57:27.345Z,1.95
2019-05-11T01:59:53.151Z,1.91
2019-05-11T02:02:18.953Z,1.96
2019-05-11T02:04:44.756Z,2.02
2019-05-11T02:07:10.533Z,2.03
2019-05-11T02:09:36.357Z,1.98
2019-05-11T02:12:02.247Z,1.86
2019-05-11T02:14:28.045Z,1.74
2019-05-11T02:16:53.849Z,1.86
2019-05-11T02:19:19.683Z,1.74
2019-05-11T02:21:45.475Z,1.69
2019-05-11T02:24:11.260Z,1.63
2019-05-11T02:26:37.060Z,1.63
2019-05-11T02:29:02.941Z,1.58
2019-05-11T02:31:28.736Z,1.56
2019-05-11T02:33:54.540Z,1.57
2019-05-11T02:36:20.339Z,1.64
2019-05-11T02:38:46.128Z,1.73
2019-05-11T02:41:11.928Z,1.65
2019-05-11T02:43:38.209Z,1.52
2019-05-11T02:46:04.014Z,1.35
2019-05-11T02:48:29.821Z,1.35
2019-05-11T02:50:56.719Z,1.40
2019-05-11T02:53:22.711Z,1.37
2019-05-11T02:55:49.110Z,1.33
2019-05-11T02:58:14.928Z,1.32
2019-05-11T03:00:42.729Z,1.36
2019-05-11T03:03:08.561Z,1.44
2019-05-11T03:05:34.367Z,1.32
2019-05-11T03:08:00.158Z,1.24
2019-05-11T03:10:25.946Z,1.24
2019-05-11T03:12:51.741Z,1.23
2019-05-11T03:15:17.523Z,1.19
2019-05-11T03:17:43.329Z,1.17
2019-05-11T03:20:09.215Z,1.21
2019-05-11T03:22:35.018Z,1.13
2019-05-11T03:25:00.801Z,1.10
2019-05-11T03:27:26.622Z,1.07
2019-05-11T03:29:52.405Z,1.00
2019-05-11T03:32:18.240Z,1.04
2019-05-11T03:34:44.011Z,1.08
2019-05-11T03:37:09.804Z,1.12
2019-05-11T03:39:35.599Z,1.12
2019-05-11T03:42:14.135Z,1.08
2019-05-11T03:44:29.189Z,1.06
2019-05-11T03:46:55.004Z,0.97
2019-05-11T03:49:20.789Z,0.92
2019-05-11T03:51:46.583Z,1.02
2019-05-11T03:54:12.368Z,1.14
2019-05-11T03:56:38.202Z,1.09
2019-05-11T03:59:03.967Z,1.15
2019-05-11T04:01:29.780Z,1.18
2019-05-11T04:03:55.579Z,1.23
2019-05-11T04:06:21.366Z,1.31
2019-05-11T04:08:53.909Z,1.41
2019-05-11T04:11:19.696Z,1.27
2019-05-11T04:13:45.496Z,1.40
2019-05-11T04:16:11.273Z,1.40
2019-05-11T04:18:37.073Z,1.48
2019-05-11T04:21:02.859Z,1.53
2019-05-11T04:23:28.658Z,1.49
2019-05-11T04:25:54.442Z,1.43
2019-05-11T04:28:20.269Z,1.34
2019-05-11T04:30:46.048Z,1.31
2019-05-11T04:33:11.938Z,1.33
2019-05-11T04:35:37.739Z,1.35
2019-05-11T04:38:03.560Z,1.36
2019-05-11T04:40:30.148Z,1.38
2019-05-11T04:42:56.442Z,1.45
2019-05-11T04:45:22.382Z,1.49
2019-05-11T04:47:48.248Z,1.54
2019-05-11T04:50:14.290Z,1.57
2019-05-11T04:52:40.179Z,1.63
2019-05-11T04:55:05.983Z,1.68
2019-05-11T04:57:31.762Z,1.74
2019-05-11T04:59:57.563Z,1.83
2019-05-11T05:02:23.367Z,2.03
2019-05-11T05:04:49.175Z,2.24
2019-05-11T05:07:16.653Z,2.51
2019-05-11T05:09:44.738Z,2.65
2019-05-11T05:12:14.184Z,2.72
2019-05-11T05:14:37.989Z,2.75
2019-05-11T05:17:03.794Z,2.84
2019-05-11T05:19:29.592Z,2.98
2019-05-11T05:21:55.383Z,2.99
2019-05-11T05:24:21.192Z,3.16
2019-05-11T05:26:47.000Z,3.25
2019-05-11T05:29:12.818Z,3.47
2019-05-11T05:31:38.604Z,3.70
2019-05-11T05:34:04.423Z,3.87
2019-05-11T05:36:30.204Z,4.05
2019-05-11T05:38:55.991Z,4.14
2019-05-11T05:41:21.806Z,4.18
2019-05-11T05:43:47.609Z,4.14
2019-05-11T05:46:13.429Z,4.20
2019-05-11T05:48:39.237Z,4.43
2019-05-11T05:51:05.154Z,4.74
2019-05-11T05:53:30.954Z,4.83
2019-05-11T05:55:56.744Z,4.95
2019-05-11T05:58:22.530Z,5.19
2019-05-11T06:00:48.384Z,5.30
2019-05-11T06:03:14.159Z,5.49
2019-05-11T06:05:40.078Z,5.57
2019-05-11T06:08:05.846Z,5.64
2019-05-11T06:10:31.674Z,5.79
2019-05-11T06:12:57.477Z,5.91
2019-05-11T06:15:23.280Z,6.06
2019-05-11T06:17:49.086Z,6.13
2019-05-11T06:20:14.993Z,6.23
2019-05-11T06:22:40.813Z,6.27
2019-05-11T06:25:06.705Z,6.39
2019-05-11T06:27:32.507Z,6.50
2019-05-11T06:29:58.296Z,6.63
2019-05-11T06:32:24.111Z,6.70
2019-05-11T06:34:49.893Z,6.83
2019-05-11T06:37:15.723Z,6.95
2019-05-11T06:39:41.513Z,6.95
2019-05-11T06:42:07.314Z,7.19
2019-05-11T06:44:33.103Z,7.22
2019-05-11T06:46:58.931Z,7.26
2019-05-11T06:49:24.725Z,7.34
2019-05-11T06:51:50.525Z,7.42
2019-05-11T06:54:16.449Z,7.47
2019-05-11T06:56:42.241Z,7.53
2019-05-11T06:59:08.026Z,7.74
2019-05-11T07:01:33.831Z,7.87
2019-05-11T07:03:59.620Z,7.83
2019-05-11T07:06:28.343Z,7.99
2019-05-11T07:08:53.150Z,8.27
2019-05-11T07:11:18.933Z,8.27
2019-05-11T07:13:44.739Z,8.26
2019-05-11T07:16:10.522Z,8.45
2019-05-11T07:18:36.322Z,8.57
2019-05-11T07:21:02.106Z,8.61
2019-05-11T07:23:27.909Z,8.68
2019-05-11T07:25:53.695Z,8.73
2019-05-11T07:28:19.502Z,9.13
2019-05-11T07:30:45.303Z,9.43
2019-05-11T07:33:11.094Z,10.06
2019-05-11T07:35:38.519Z,10.28
2019-05-11T07:38:04.393Z,10.46
2019-05-11T07:40:30.175Z,10.65
2019-05-11T07:42:55.979Z,10.99
2019-05-11T07:45:21.770Z,11.39
2019-05-11T07:47:48.561Z,11.40
2019-05-11T07:50:14.971Z,11.42
2019-05-11T07:52:40.758Z,11.88
2019-05-11T07:55:08.481Z,12.48
2019-05-11T07:57:34.645Z,12.39
2019-05-11T08:00:00.441Z,12.55
2019-05-11T08:02:28.551Z,12.56
2019-05-11T08:04:53.951Z,12.55
2019-05-11T08:07:19.741Z,12.67
2019-05-11T08:09:45.541Z,13.24
2019-05-11T08:12:11.335Z,13.73
2019-05-11T08:14:55.962Z,13.87
2019-05-11T08:17:04.829Z,12.64
2019-05-11T08:19:30.634Z,12.29
2019-05-11T08:21:58.235Z,12.62
2019-05-11T08:24:24.138Z,12.56
2019-05-11T08:26:49.937Z,13.11
2019-05-11T08:29:15.741Z,13.36
2019-05-11T08:31:41.529Z,13.89
2019-05-11T08:34:08.871Z,13.61
2019-05-11T08:36:34.928Z,13.68
2019-05-11T08:39:00.759Z,13.56
2019-05-11T08:41:27.936Z,13.42
2019-05-11T08:43:54.057Z,13.31
2019-05-11T08:46:19.854Z,14.45
2019-05-11T08:48:47.735Z,13.77
2019-05-11T08:51:13.363Z,12.28
2019-05-11T08:53:39.138Z,11.61
2019-05-11T08:56:04.934Z,11.82
2019-05-11T08:58:30.745Z,11.68
2019-05-11T09:00:58.317Z,11.89
2019-05-11T09:03:24.249Z,12.84
2019-05-11T09:05:50.068Z,12.59
2019-05-11T09:08:15.878Z,11.99
2019-05-11T09:10:41.693Z,12.81
2019-05-11T09:13:08.089Z,12.55
2019-05-11T09:15:39.795Z,12.06
2019-05-11T09:18:01.702Z,12.58
2019-05-11T09:20:28.554Z,13.58
2019-05-11T09:22:54.496Z,13.64
2019-05-11T09:25:20.307Z,14.05
2019-05-11T09:27:48.217Z,14.48
2019-05-11T09:30:14.110Z,14.35
2019-05-11T09:32:39.957Z,15.05
2019-05-11T09:35:08.110Z,15.00
2019-05-11T09:37:33.645Z,14.79
2019-05-11T09:39:59.437Z,13.84
2019-05-11T09:42:25.244Z,12.69
2019-05-11T09:44:51.026Z,12.81
2019-05-11T09:47:18.976Z,13.00
2019-05-11T09:49:48.040Z,13.83
2019-05-11T09:52:12.320Z,14.69
2019-05-11T09:54:38.486Z,15.10
2019-05-11T09:57:04.347Z,15.06
2019-05-11T09:59:30.134Z,14.71
2019-05-11T10:01:56.134Z,14.87
2019-05-11T10:04:21.949Z,15.09
2019-05-11T10:06:48.220Z,15.00
2019-05-11T10:09:14.037Z,14.69
2019-05-11T10:11:40.084Z,13.68
2019-05-11T10:14:08.211Z,12.96
2019-05-11T10:16:33.708Z,13.48
2019-05-11T10:18:59.513Z,14.13
2019-05-11T10:21:25.298Z,14.79
2019-05-11T10:23:51.201Z,15.65
2019-05-11T10:26:18.689Z,15.99
2019-05-11T10:28:44.917Z,16.41
2019-05-11T10:31:11.082Z,15.27
2019-05-11T10:33:38.222Z,14.00
2019-05-11T10:36:04.869Z,13.92
2019-05-11T10:38:30.659Z,14.67
2019-05-11T10:40:58.161Z,15.18
2019-05-11T10:43:24.160Z,15.39
2019-05-11T10:45:49.954Z,16.30
2019-05-11T10:48:17.741Z,16.07
2019-05-11T10:50:43.713Z,15.55
2019-05-11T10:53:09.514Z,14.88
2019-05-11T10:55:38.650Z,14.74
2019-05-11T10:58:04.194Z,14.91
2019-05-11T11:00:30.494Z,15.12
2019-05-11T11:02:58.133Z,15.61
2019-05-11T11:05:24.220Z,15.37
2019-05-11T11:07:50.781Z,15.94
2019-05-11T11:10:18.161Z,16.25
2019-05-11T11:12:44.141Z,16.17
2019-05-11T11:15:10.276Z,15.43
2019-05-11T11:17:38.274Z,15.77
2019-05-11T11:20:08.595Z,16.30
2019-05-11T11:22:40.375Z,16.28
2019-05-11T11:25:03.966Z,16.51
2019-05-11T11:27:29.850Z,16.77
2019-05-11T11:29:55.643Z,16.75
2019-05-11T11:32:21.445Z,16.74
2019-05-11T11:34:48.476Z,16.51
2019-05-11T11:37:14.817Z,16.06
2019-05-11T11:39:40.641Z,16.42
2019-05-11T11:42:08.417Z,16.28
2019-05-11T11:44:34.848Z,16.11
2019-05-11T11:47:01.131Z,16.20
2019-05-11T11:49:28.289Z,15.94
2019-05-11T11:51:57.822Z,15.77
2019-05-11T11:54:23.501Z,15.87
2019-05-11T11:56:49.310Z,16.07
2019-05-11T11:59:15.111Z,15.88
2019-05-11T12:01:40.928Z,16.05
2019-05-11T12:04:08.241Z,16.27
2019-05-11T12:06:34.266Z,16.45
2019-05-11T12:09:00.056Z,16.62
2019-05-11T12:11:27.832Z,16.37
2019-05-11T12:13:53.567Z,16.46
2019-05-11T12:16:19.385Z,16.57
2019-05-11T12:18:45.187Z,16.92
2019-05-11T12:21:11.011Z,16.51
2019-05-11T12:23:38.122Z,16.59
2019-05-11T12:26:04.207Z,16.44
2019-05-11T12:28:30.000Z,16.37
2019-05-11T12:30:58.421Z,16.25
2019-05-11T12:33:23.496Z,16.28
2019-05-11T12:35:49.301Z,16.56
2019-05-11T12:38:15.153Z,16.37
2019-05-11T12:40:40.958Z,16.43
2019-05-11T12:43:08.131Z,16.60
2019-05-11T12:45:34.281Z,16.08
2019-05-11T12:48:00.833Z,15.57
2019-05-11T12:50:28.801Z,15.81
2019-05-11T12:52:58.185Z,16.54
2019-05-11T12:55:22.444Z,16.73
2019-05-11T12:57:48.294Z,16.23
2019-05-11T13:00:14.439Z,16.00
2019-05-11T13:02:40.280Z,16.12
2019-05-11T13:05:08.708Z,16.02
2019-05-11T13:07:38.949Z,16.38
2019-05-11T13:10:05.627Z,16.34
2019-05-11T13:12:32.664Z,16.59
2019-05-11T13:14:59.156Z,16.79
2019-05-11T13:17:36.583Z,16.00
2019-05-11T13:19:53.955Z,16.06
2019-05-11T13:22:20.627Z,15.98
2019-05-11T13:24:48.146Z,16.41
2019-05-11T13:27:14.124Z,15.95
2019-05-11T13:29:39.951Z,16.17
2019-05-11T13:32:07.786Z,16.03
2019-05-11T13:34:33.485Z,15.76
2019-05-11T13:36:59.292Z,16.06
2019-05-11T13:39:25.077Z,16.03
2019-05-11T13:41:50.879Z,16.29
2019-05-11T13:44:18.675Z,16.16
2019-05-11T13:46:44.401Z,16.18
2019-05-11T13:49:10.199Z,16.06
2019-05-11T13:51:35.995Z,15.92
2019-05-11T13:54:01.793Z,15.92
2019-05-11T13:56:28.517Z,16.14
2019-05-11T13:58:57.909Z,16.20
2019-05-11T14:01:23.800Z,16.15
2019-05-11T14:03:49.639Z,16.07
2019-05-11T14:06:15.428Z,16.00
2019-05-11T14:08:41.239Z,16.49
2019-05-11T14:11:08.591Z,16.43
2019-05-11T14:13:34.520Z,16.23
2019-05-11T14:16:00.325Z,16.07
2019-05-11T14:18:28.170Z,15.38
2019-05-11T14:20:53.846Z,15.14
2019-05-11T14:23:19.642Z,15.34
2019-05-11T14:25:45.448Z,15.71
2019-05-11T14:28:11.249Z,15.82
2019-05-11T14:30:38.542Z,15.70
2019-05-11T14:33:04.642Z,15.54
2019-05-11T14:35:30.562Z,15.23
2019-05-11T14:37:58.577Z,15.03
2019-05-11T14:40:24.063Z,15.03
2019-05-11T14:42:49.852Z,14.74
2019-05-11T14:45:15.652Z,14.69
2019-05-11T14:47:42.789Z,14.64
2019-05-11T14:50:08.952Z,14.40
2019-05-11T14:52:34.732Z,14.36
2019-05-11T14:55:00.551Z,14.62
2019-05-11T14:57:27.845Z,14.48
2019-05-11T14:59:53.862Z,14.56
2019-05-11T15:02:37.918Z,14.80
2019-05-11T15:05:04.007Z,14.77
2019-05-11T15:07:30.084Z,14.83
2019-05-11T15:09:55.887Z,14.78
2019-05-11T15:12:22.478Z,14.63
2019-05-11T15:14:48.641Z,14.37
2019-05-11T15:17:14.610Z,14.38
2019-05-11T15:19:40.544Z,14.49
2019-05-11T15:22:08.555Z,14.41
2019-05-11T15:24:34.045Z,14.49
2019-05-11T15:26:59.949Z,14.86
2019-05-11T15:29:25.748Z,15.19
2019-05-11T15:31:51.538Z,15.15
2019-05-11T15:34:18.589Z,14.80
2019-05-11T15:36:44.639Z,14.62
2019-05-11T15:39:10.437Z,14.70
2019-05-11T15:41:38.591Z,14.67
2019-05-11T15:44:03.953Z,14.71
2019-05-11T15:46:29.738Z,14.64
2019-05-11T15:49:02.739Z,14.68
2019-05-11T15:51:23.259Z,14.63
2019-05-11T15:53:50.289Z,14.69
2019-05-11T15:56:18.772Z,14.63
2019-05-11T15:58:43.958Z,14.61
2019-05-11T16:01:09.753Z,14.60
2019-05-11T16:03:35.554Z,14.54
2019-05-11T16:06:01.359Z,14.70
2019-05-11T16:08:28.370Z,14.53
2019-05-11T16:10:54.377Z,14.64
2019-05-11T16:13:20.164Z,14.83
2019-05-11T16:15:47.701Z,14.95
2019-05-11T16:18:13.664Z,14.80
2019-05-11T16:20:39.533Z,14.68
2019-05-11T16:23:05.338Z,14.61
2019-05-11T16:25:31.162Z,14.62
2019-05-11T16:27:56.952Z,14.53
2019-05-11T16:30:22.783Z,14.53
2019-05-11T16:32:48.585Z,14.66
2019-05-11T16:35:14.491Z,14.62
2019-05-11T16:37:40.345Z,14.66
2019-05-11T16:40:06.628Z,14.55
2019-05-11T16:42:32.440Z,14.62
2019-05-11T16:44:58.236Z,14.62
2019-05-11T16:47:24.046Z,14.55
2019-05-11T16:49:49.844Z,14.45
2019-05-11T16:52:15.656Z,14.32
2019-05-11T16:54:41.457Z,14.02
2019-05-11T16:57:08.607Z,13.86
2019-05-11T16:59:34.551Z,13.79
2019-05-11T17:02:00.399Z,13.99
2019-05-11T17:04:28.822Z,14.04
2019-05-11T17:06:54.099Z,14.02
2019-05-11T17:09:20.002Z,13.98
2019-05-11T17:11:45.802Z,14.03
2019-05-11T17:14:11.596Z,13.94
2019-05-11T17:16:38.641Z,13.92
2019-05-11T17:19:07.348Z,13.89
2019-05-11T17:21:32.866Z,13.85
2019-05-11T17:23:58.665Z,13.82
2019-05-11T17:26:24.508Z,13.80
2019-05-11T17:28:51.530Z,13.83
2019-05-11T17:31:19.007Z,13.80
2019-05-11T17:33:48.515Z,13.75
2019-05-11T17:36:14.538Z,13.82
2019-05-11T17:38:40.380Z,13.85
2019-05-11T17:41:08.331Z,13.79
2019-05-11T17:43:33.860Z,13.82
2019-05-11T17:45:59.659Z,13.74
2019-05-11T17:48:25.453Z,13.72
2019-05-11T17:50:51.258Z,13.60
2019-05-11T17:53:18.281Z,13.50
2019-05-11T17:55:44.145Z,13.53
2019-05-11T17:58:09.961Z,13.51
2019-05-11T18:00:35.764Z,13.40
2019-05-11T18:03:01.585Z,13.30
2019-05-11T18:05:27.365Z,13.25
2019-05-11T18:07:53.920Z,13.20
2019-05-11T18:10:20.104Z,13.18
2019-05-11T18:12:48.284Z,13.17
2019-05-11T18:15:14.193Z,13.14
2019-05-11T18:17:40.710Z,13.12
2019-05-11T18:20:17.368Z,13.04
2019-05-11T18:22:39.088Z,13.04
2019-05-11T18:25:08.100Z,12.96
2019-05-11T18:27:33.834Z,13.03
2019-05-11T18:29:59.670Z,12.97
2019-05-11T18:32:25.485Z,13.03
2019-05-11T18:34:51.307Z,12.97
2019-05-11T18:37:18.682Z,12.86
2019-05-11T18:39:44.621Z,12.65
2019-05-11T18:42:10.557Z,12.62
2019-05-11T18:44:37.990Z,12.58
2019-05-11T18:47:03.885Z,12.58
2019-05-11T18:49:29.680Z,12.39
2019-05-11T18:51:55.486Z,12.24
2019-05-11T18:54:21.325Z,12.14
2019-05-11T18:56:48.874Z,12.06
2019-05-11T18:59:14.846Z,12.00
2019-05-11T19:01:40.674Z,11.90
2019-05-11T19:04:07.832Z,11.73
2019-05-11T19:06:33.893Z,11.41
2019-05-11T19:08:59.688Z,11.41
2019-05-11T19:11:25.556Z,11.35
2019-05-11T19:13:51.405Z,11.26
2019-05-11T19:16:18.632Z,11.15
2019-05-11T19:18:44.817Z,11.06
2019-05-11T19:21:10.706Z,10.93
2019-05-11T19:23:38.005Z,10.86
2019-05-11T19:26:04.020Z,10.73
2019-05-11T19:28:29.827Z,10.64
2019-05-11T19:30:55.639Z,10.59
2019-05-11T19:33:21.432Z,10.51
2019-05-11T19:35:48.063Z,10.46
2019-05-11T19:38:14.149Z,10.41
2019-05-11T19:40:39.942Z,10.31
2019-05-11T19:43:07.695Z,10.25
2019-05-11T19:45:33.442Z,10.03
2019-05-11T19:47:59.263Z,9.94
2019-05-11T19:50:25.051Z,9.90
2019-05-11T19:52:50.849Z,9.78
2019-05-11T19:55:17.891Z,9.80
2019-05-11T19:57:44.177Z,9.74
2019-05-11T20:00:10.062Z,9.67
2019-05-11T20:02:35.885Z,9.55
2019-05-11T20:05:01.711Z,9.46
2019-05-11T20:07:27.493Z,9.41
2019-05-11T20:09:53.290Z,9.36
2019-05-11T20:12:19.095Z,9.35
2019-05-11T20:14:44.879Z,9.22
2019-05-11T20:17:10.688Z,9.20
2019-05-11T20:19:38.425Z,9.19
2019-05-11T20:22:04.222Z,9.08
2019-05-11T20:24:30.010Z,8.99
2019-05-11T20:26:55.794Z,9.00
2019-05-11T20:29:21.588Z,8.88
2019-05-11T20:31:47.385Z,8.89
2019-05-11T20:34:13.186Z,8.74
2019-05-11T20:36:38.983Z,8.71
2019-05-11T20:39:05.883Z,8.66
2019-05-11T20:41:31.680Z,8.60
2019-05-11T20:43:58.030Z,8.60
2019-05-11T20:46:23.996Z,8.41
2019-05-11T20:48:49.817Z,8.41
2019-05-11T20:51:29.714Z,8.41
2019-05-11T20:53:46.192Z,8.26
2019-05-11T20:56:11.096Z,8.23
2019-05-11T20:58:55.180Z,8.23
2019-05-11T21:01:21.703Z,8.20
2019-05-11T21:03:48.654Z,8.08
2019-05-11T21:06:14.654Z,8.06
2019-05-11T21:08:40.506Z,8.00
2019-05-11T21:11:08.529Z,7.94
2019-05-11T21:13:33.994Z,7.80
2019-05-11T21:15:59.816Z,7.80
2019-05-11T21:18:25.600Z,7.75
2019-05-11T21:20:51.398Z,7.77
2019-05-11T21:23:18.587Z,7.71
2019-05-11T21:25:44.719Z,7.64
2019-05-11T21:28:10.505Z,7.57
2019-05-11T21:30:39.706Z,7.58
2019-05-11T21:33:04.015Z,7.52
2019-05-11T21:35:30.328Z,7.44
2019-05-11T21:37:57.967Z,7.35
2019-05-11T21:40:23.830Z,7.34
2019-05-11T21:42:49.608Z,7.37
2019-05-11T21:45:17.849Z,7.26
2019-05-11T21:47:43.526Z,7.20
2019-05-11T21:50:09.483Z,7.15
2019-05-11T21:52:35.324Z,7.08
2019-05-11T21:55:01.147Z,7.08
2019-05-11T21:57:27.888Z,6.97
2019-05-11T21:59:53.836Z,6.91
2019-05-11T22:02:19.754Z,6.88
2019-05-11T22:04:47.862Z,6.41
2019-05-11T22:07:13.275Z,6.75
2019-05-11T22:09:39.063Z,6.70
2019-05-11T22:12:04.878Z,6.66
2019-05-11T22:14:30.666Z,6.59
2019-05-11T22:16:59.239Z,6.56
2019-05-11T22:19:24.185Z,6.55
2019-05-11T22:21:50.004Z,6.47
2019-05-11T22:24:17.801Z,6.42
2019-05-11T22:26:43.500Z,6.38
2019-05-11T22:29:09.290Z,6.34
2019-05-11T22:31:35.104Z,6.31
2019-05-11T22:34:00.886Z,6.22
2019-05-11T22:36:28.233Z,6.16
2019-05-11T22:38:54.206Z,6.11
2019-05-11T22:41:20.043Z,6.16
2019-05-11T22:43:48.433Z,6.04
2019-05-11T22:46:13.518Z,6.00
2019-05-11T22:48:39.339Z,5.97
2019-05-11T22:51:05.132Z,5.95
2019-05-11T22:53:43.687Z,5.91
2019-05-11T22:55:58.631Z,5.86
2019-05-11T22:58:24.430Z,5.89
2019-05-11T23:00:50.217Z,5.87
2019-05-11T23:03:18.604Z,5.80
2019-05-11T23:05:43.741Z,5.75
2019-05-11T23:08:09.773Z,5.69
2019-05-11T23:10:35.587Z,5.68
2019-05-11T23:13:01.485Z,5.67
2019-05-11T23:15:27.282Z,5.66
2019-05-11T23:17:53.079Z,5.58
2019-05-11T23:20:18.877Z,5.60
2019-05-11T23:22:56.928Z,5.59
2019-05-11T23:25:18.228Z,5.58
2019-05-11T23:27:43.765Z,5.52
2019-05-11T23:30:09.765Z,5.53
2019-05-11T23:32:35.876Z,5.45
2019-05-11T23:35:02.105Z,5.37
2019-05-11T23:37:27.975Z,5.33
2019-05-11T23:39:53.797Z,5.33
2019-05-11T23:42:19.587Z,5.34
2019-05-11T23:44:45.929Z,5.29
2019-05-11T23:47:13.119Z,5.26
2019-05-11T23:49:38.939Z,5.24
2019-05-11T23:52:04.734Z,5.21
2019-05-11T23:54:30.544Z,5.17
2019-05-11T23:56:58.277Z,5.12
2019-05-11T23:59:24.034Z,5.14
